createdAt,value
2023-04-02T13:12:48.041Z,46.53
2023-04-02T13:13:48.956Z,46.73
2023-04-02T13:14:48.943Z,46.83
2023-04-02T13:15:49.010Z,46.73
2023-04-02T13:16:48.899Z,46.83
2023-04-02T13:17:48.944Z,47.23
2023-04-02T13:18:48.836Z,47.03
2023-04-02T13:19:48.801Z,47.33
2023-04-02T13:20:48.765Z,47.33
2023-04-02T13:21:48.728Z,47.23
2023-04-02T13:22:48.694Z,47.33
2023-04-02T13:23:48.654Z,47.33
2023-04-02T13:24:48.603Z,47.23
2023-04-02T13:25:48.558Z,47.43
2023-04-02T13:26:48.525Z,47.43
2023-04-02T13:27:48.472Z,47.43
2023-04-02T13:28:48.460Z,47.33
2023-04-02T13:29:48.374Z,47.53
2023-04-02T13:30:48.323Z,47.50
2023-04-02T13:31:48.277Z,47.50
2023-04-02T13:32:48.249Z,47.81
2023-04-02T13:33:48.175Z,47.50
2023-04-02T13:34:48.308Z,47.71
2023-04-02T13:35:48.081Z,47.61
2023-04-02T13:36:48.035Z,47.61
2023-04-02T13:37:48.013Z,47.61
2023-04-02T13:38:47.926Z,47.50
2023-04-02T13:39:47.873Z,47.50
2023-04-02T13:40:47.853Z,47.41
2023-04-02T13:41:47.766Z,47.41
2023-04-02T13:42:47.722Z,47.20
2023-04-02T13:43:47.658Z,47.20
2023-04-02T13:44:47.608Z,47.50
2023-04-02T13:45:47.633Z,47.50
2023-04-02T13:46:47.559Z,47.61
2023-04-02T13:47:47.522Z,47.61
2023-04-02T13:48:47.403Z,47.50
2023-04-02T13:49:47.345Z,47.41
2023-04-02T13:50:47.348Z,47.50
2023-04-02T13:51:47.238Z,47.61
2023-04-02T13:52:47.222Z,47.41
2023-04-02T13:53:47.127Z,47.61
2023-04-02T13:54:47.076Z,47.71
2023-04-02T13:55:47.018Z,47.71
2023-04-02T13:56:46.965Z,47.61
2023-04-02T13:57:46.915Z,47.71
2023-04-02T13:58:46.995Z,47.50
2023-04-02T13:59:46.809Z,47.69
2023-04-02T14:00:46.788Z,47.58
2023-04-02T14:01:46.704Z,47.69
2023-04-02T14:02:46.689Z,47.69
2023-04-02T14:04:22.625Z,47.88
2023-04-02T14:05:23.277Z,48.79
2023-04-02T14:06:58.541Z,48.19
2023-04-02T14:07:59.353Z,48.08
2023-04-02T14:09:00.214Z,48.19
2023-04-02T14:10:01.081Z,47.99
2023-04-02T14:11:01.897Z,47.99
2023-04-02T14:12:02.737Z,47.99
2023-04-02T14:13:03.620Z,47.99
2023-04-02T14:14:04.451Z,47.99
2023-04-02T14:15:05.295Z,47.99
2023-04-02T14:16:06.133Z,48.08
2023-04-02T14:17:07.051Z,48.08
2023-04-02T14:18:07.971Z,47.88
2023-04-02T14:19:08.776Z,47.78
2023-04-02T14:20:09.614Z,47.88
2023-04-02T14:21:10.449Z,47.78
2023-04-02T14:22:11.307Z,47.78
2023-04-02T14:23:12.145Z,47.99
2023-04-02T14:24:12.989Z,48.28
2023-04-02T14:25:35.822Z,48.19
2023-04-02T14:26:36.293Z,48.28
2023-04-02T14:27:39.063Z,47.99
2023-04-02T14:28:38.125Z,47.88
2023-04-02T14:29:38.966Z,47.99
2023-04-02T14:30:40.073Z,48.19
2023-04-02T14:31:40.458Z,48.19
2023-04-02T14:32:41.372Z,48.19
2023-04-02T14:33:42.223Z,47.99
2023-04-02T14:34:43.082Z,47.99
2023-04-02T14:35:43.984Z,47.99
2023-04-02T14:36:44.886Z,47.99
2023-04-02T14:37:45.789Z,47.88
2023-04-02T14:38:46.648Z,47.99
2023-04-02T14:39:47.517Z,47.99
2023-04-02T14:40:48.381Z,47.99
2023-04-02T14:41:49.246Z,47.99
2023-04-02T14:42:50.108Z,47.99
2023-04-02T14:43:50.993Z,47.99
2023-04-02T14:44:51.862Z,47.99
2023-04-02T14:45:52.755Z,47.99
2023-04-02T14:46:53.839Z,47.99
2023-04-02T14:47:54.159Z,47.99
2023-04-02T14:48:55.101Z,47.99
2023-04-02T14:49:55.977Z,48.08
2023-04-02T14:50:56.823Z,47.99
2023-04-02T14:51:57.694Z,47.96
2023-04-02T14:52:58.573Z,47.99
2023-04-02T14:53:59.437Z,47.96
2023-04-02T14:55:00.307Z,47.96
2023-04-02T14:56:01.165Z,48.07
2023-04-02T14:57:02.051Z,48.16
2023-04-02T14:58:02.891Z,48.16
2023-04-02T14:59:03.839Z,48.16
2023-04-02T15:00:04.679Z,48.16
2023-04-02T15:01:05.532Z,48.16
2023-04-02T15:02:06.394Z,48.16
2023-04-02T15:03:07.360Z,48.07
2023-04-02T15:04:08.427Z,48.07
2023-04-02T15:05:08.792Z,48.16
2023-04-02T15:06:09.655Z,48.26
2023-04-02T15:07:10.521Z,48.26
2023-04-02T15:08:11.404Z,48.26
2023-04-02T15:09:12.256Z,48.16
2023-04-02T15:10:13.164Z,48.16
2023-04-02T15:11:14.018Z,48.16
2023-04-02T15:12:14.875Z,48.07
2023-04-02T15:13:15.734Z,48.26
2023-04-02T15:14:16.594Z,48.36
2023-04-02T15:15:22.218Z,48.16
2023-04-02T15:16:19.358Z,48.07
2023-04-02T15:24:29.914Z,23.15
2023-04-02T15:25:30.754Z,23.87
2023-04-02T15:26:31.621Z,24.08
2023-04-02T15:27:32.483Z,24.72
2023-04-02T15:28:33.352Z,24.33
2023-04-02T15:29:34.265Z,26.43
2023-04-02T15:30:35.477Z,28.90
2023-04-02T15:31:36.087Z,29.64
2023-04-02T15:32:36.947Z,33.14
2023-04-02T15:33:37.792Z,33.07
2023-04-02T15:34:38.782Z,32.20
2023-04-02T15:35:40.056Z,33.86
2023-04-02T15:36:40.635Z,34.26
2023-04-02T15:37:48.522Z,33.65
2023-04-02T15:38:42.375Z,33.52
2023-04-02T15:39:43.440Z,34.34
2023-04-02T15:40:43.750Z,33.54
2023-04-02T15:41:44.614Z,34.47
2023-04-02T15:42:45.526Z,34.47
2023-04-02T15:43:46.369Z,34.40
2023-04-02T15:44:47.262Z,32.82
2023-04-02T15:45:48.191Z,33.46
2023-04-02T15:46:49.023Z,32.90
2023-04-02T15:47:49.904Z,33.33
2023-04-02T15:48:50.751Z,33.74
2023-04-02T15:49:51.701Z,32.85
2023-04-02T15:50:52.570Z,29.50
2023-04-02T15:51:53.420Z,28.49
2023-04-02T15:52:54.292Z,28.91
2023-04-02T15:53:55.153Z,29.37
2023-04-02T15:54:56.194Z,30.62
2023-04-02T15:55:56.535Z,31.41
2023-04-02T15:56:57.425Z,27.74
2023-04-02T15:57:58.272Z,25.43
2023-04-02T15:58:59.141Z,25.47
2023-04-02T16:00:00.151Z,27.37
2023-04-02T16:01:00.526Z,27.29
2023-04-02T16:02:01.375Z,29.47
2023-04-02T16:03:02.272Z,27.76
2023-04-02T16:04:03.137Z,25.79
2023-04-02T16:05:04.051Z,25.48
2023-04-02T16:06:04.911Z,27.87
2023-04-02T16:07:05.779Z,29.88
2023-04-02T16:08:06.644Z,30.83
2023-04-02T16:09:07.514Z,32.19
2023-04-02T16:10:08.475Z,32.87
2023-04-02T16:11:09.339Z,33.01
2023-04-02T16:12:10.224Z,31.32
2023-04-02T16:13:11.078Z,31.64
2023-04-02T16:14:11.948Z,31.87
2023-04-02T16:15:12.841Z,31.84
2023-04-02T16:16:13.742Z,31.02
2023-04-02T16:17:24.226Z,32.29
2023-04-02T16:18:16.412Z,32.29
2023-04-02T16:19:17.116Z,32.79
2023-04-02T16:20:17.268Z,32.91
2023-04-02T16:21:17.608Z,34.36
2023-04-02T16:22:18.477Z,36.93
2023-04-02T16:23:19.341Z,36.34
2023-04-02T16:24:20.212Z,36.05
2023-04-02T16:25:21.239Z,35.07
2023-04-02T16:26:21.582Z,36.31
2023-04-02T16:27:22.448Z,37.04
2023-04-02T16:28:23.316Z,37.26
2023-04-02T16:29:24.194Z,37.60
2023-04-02T16:30:25.115Z,38.33
2023-04-02T16:31:26.055Z,38.45
2023-04-02T16:32:26.992Z,39.18
2023-04-02T16:33:27.893Z,39.69
2023-04-02T16:34:28.762Z,41.65
2023-04-02T16:35:42.353Z,42.26
2023-04-02T16:36:31.446Z,41.47
2023-04-02T16:37:31.296Z,41.16
2023-04-02T16:38:32.165Z,41.36
2023-04-02T16:39:33.030Z,41.67
2023-04-02T16:40:34.276Z,42.38
2023-04-02T16:41:34.722Z,42.41
2023-04-02T16:42:35.593Z,42.59
2023-04-02T16:43:36.456Z,42.90
2023-04-02T16:44:37.924Z,41.97
2023-04-02T16:45:38.315Z,42.18
2023-04-02T16:46:40.669Z,42.08
2023-04-02T16:47:39.862Z,41.77
2023-04-02T16:48:40.265Z,42.59
2023-04-02T16:49:41.134Z,42.18
2023-04-02T16:50:42.061Z,41.56
2023-04-02T16:51:42.933Z,41.97
2023-04-02T16:52:43.802Z,41.47
2023-04-02T16:53:54.767Z,41.47
2023-04-02T16:54:46.424Z,41.67
2023-04-02T16:55:46.336Z,41.79
2023-04-02T16:56:47.269Z,41.38
2023-04-02T16:57:48.174Z,41.59
2023-04-02T16:58:49.059Z,42.43
2023-04-02T16:59:49.902Z,42.43
2023-04-02T17:00:50.772Z,42.12
2023-04-02T17:01:51.676Z,41.40
2023-04-02T17:02:52.687Z,42.03
2023-04-02T17:03:53.260Z,43.06
2023-04-02T17:04:53.635Z,43.06
2023-04-02T17:05:54.498Z,42.96
2023-04-02T17:06:55.388Z,43.06
2023-04-02T17:07:56.256Z,43.06
2023-04-02T17:08:57.135Z,42.85
2023-04-02T17:09:57.989Z,43.77
2023-04-02T17:10:58.975Z,43.67
2023-04-02T17:11:59.781Z,43.47
2023-04-02T17:13:00.700Z,43.47
2023-04-02T17:14:01.564Z,43.67
2023-04-02T17:15:02.433Z,43.16
2023-04-02T17:16:03.359Z,42.34
2023-04-02T17:17:04.214Z,43.16
2023-04-02T17:18:05.324Z,44.49
2023-04-02T17:19:05.654Z,43.26
2023-04-02T17:20:06.525Z,44.00
2023-04-02T17:21:07.400Z,43.38
2023-04-02T17:22:08.255Z,43.79
2023-04-02T17:23:09.253Z,44.00
2023-04-02T17:24:09.617Z,45.43
2023-04-02T17:25:10.494Z,44.31
2023-04-02T17:26:11.378Z,43.69
2023-04-02T17:27:12.223Z,44.10
2023-04-02T17:28:13.379Z,44.31
2023-04-02T17:29:13.741Z,42.87
2023-04-02T17:30:14.621Z,43.79
2023-04-02T17:31:15.496Z,44.71
2023-04-02T17:32:16.360Z,44.00
2023-04-02T17:33:17.247Z,44.20
2023-04-02T17:34:18.130Z,44.10
2023-04-02T17:35:19.012Z,43.38
2023-04-02T17:36:19.858Z,43.28
2023-04-02T17:37:20.733Z,44.10
2023-04-02T17:38:21.612Z,44.53
2023-04-02T17:39:22.469Z,43.82
2023-04-02T17:40:23.382Z,43.51
2023-04-02T17:41:24.265Z,43.71
2023-04-02T17:42:25.110Z,43.61
2023-04-02T17:43:25.979Z,44.14
2023-04-02T17:44:26.851Z,44.24
2023-04-02T17:45:27.768Z,44.76
2023-04-02T17:46:28.618Z,45.17
2023-04-02T17:47:29.575Z,45.37
2023-04-02T17:48:29.978Z,44.24
2023-04-02T17:49:30.852Z,45.47
2023-04-02T17:50:31.881Z,45.47
2023-04-02T17:51:32.222Z,45.98
2023-04-02T17:52:33.223Z,45.89
2023-04-02T17:53:33.596Z,46.70
2023-04-02T17:54:34.465Z,46.50
2023-04-02T17:55:35.382Z,46.83
2023-04-02T17:56:38.276Z,46.01
2023-04-02T17:57:37.330Z,46.72
2023-04-02T17:58:37.757Z,46.42
2023-04-02T17:59:38.632Z,46.52
2023-04-02T18:00:39.538Z,46.11
2023-04-02T18:01:40.411Z,45.50
2023-04-02T18:02:41.378Z,45.50
2023-04-02T18:03:42.300Z,46.21
2023-04-02T18:04:43.132Z,46.93
2023-04-02T18:05:44.034Z,46.93
2023-04-02T18:06:44.888Z,46.01
2023-04-02T18:07:45.755Z,45.90
2023-04-02T18:08:46.618Z,46.72
2023-04-02T18:09:47.482Z,46.85
2023-04-02T18:10:48.397Z,47.16
2023-04-02T18:11:49.283Z,46.44
2023-04-02T18:12:50.126Z,46.54
2023-04-02T18:13:50.991Z,47.05
2023-04-02T18:14:51.858Z,47.67
2023-04-02T18:15:52.736Z,47.56
2023-04-02T18:16:53.636Z,47.26
2023-04-02T18:17:54.518Z,46.95
2023-04-02T18:18:55.401Z,46.75
2023-04-02T18:19:56.263Z,47.36
2023-04-02T18:20:57.212Z,47.16
2023-04-02T18:21:58.128Z,47.05
2023-04-02T18:22:58.992Z,46.77
2023-04-02T18:23:59.899Z,47.08
2023-04-02T18:25:00.755Z,47.38
2023-04-02T18:26:01.638Z,47.59
2023-04-02T18:27:02.527Z,47.89
2023-04-02T18:28:03.368Z,47.28
2023-04-02T18:29:04.358Z,47.18
2023-04-02T18:30:05.231Z,48.10
2023-04-02T18:31:06.150Z,47.38
2023-04-02T18:32:06.981Z,47.59
2023-04-02T18:33:07.854Z,47.41
2023-04-02T18:34:08.844Z,48.64
2023-04-02T18:35:09.207Z,48.22
2023-04-02T18:36:10.104Z,48.22
2023-04-02T18:37:10.941Z,48.13
2023-04-02T18:38:11.811Z,48.22
2023-04-02T18:39:12.718Z,48.54
2023-04-02T18:40:13.591Z,48.94
2023-04-02T18:41:14.457Z,49.58
2023-04-02T18:42:15.348Z,49.38
2023-04-02T18:43:16.193Z,50.30
2023-04-02T18:44:17.205Z,49.27
2023-04-02T18:45:17.567Z,49.17
2023-04-02T18:46:18.470Z,49.89
2023-04-02T18:47:19.311Z,49.69
2023-04-02T18:48:20.178Z,49.58
2023-04-02T18:49:21.068Z,49.58
2023-04-02T18:50:21.940Z,49.89
2023-04-02T18:51:22.800Z,49.79
2023-04-02T18:52:23.678Z,50.30
2023-04-02T18:53:24.585Z,49.79
2023-04-02T18:54:25.549Z,49.17
2023-04-02T18:55:26.418Z,49.58
2023-04-02T18:56:27.293Z,50.20
2023-04-02T18:57:28.187Z,51.23
2023-04-02T18:58:29.067Z,50.63
2023-04-02T18:59:29.996Z,50.94
2023-04-02T19:00:30.870Z,51.15
2023-04-02T19:01:31.786Z,51.76
2023-04-02T19:02:32.761Z,51.76
2023-04-02T19:03:33.244Z,51.97
2023-04-02T19:04:33.740Z,51.76
2023-04-02T19:05:34.966Z,51.25
2023-04-02T19:06:35.484Z,51.48
2023-04-02T19:07:36.351Z,51.99
2023-04-02T19:08:37.222Z,51.07
2023-04-02T19:09:38.126Z,50.04
2023-04-02T19:10:38.995Z,51.17
2023-04-02T19:11:39.858Z,51.68
2023-04-02T19:12:40.746Z,51.48
2023-04-02T19:13:41.593Z,51.28
2023-04-02T19:14:42.513Z,51.17
2023-04-02T19:15:43.394Z,50.56
2023-04-02T19:16:44.243Z,51.17
2023-04-02T19:17:45.123Z,50.35
2023-04-02T19:18:45.976Z,50.22
2023-04-02T19:19:46.907Z,50.14
2023-04-02T19:20:47.777Z,50.12
2023-04-02T19:21:48.645Z,51.35
2023-04-02T19:22:49.511Z,50.84
2023-04-02T19:23:50.375Z,51.04
2023-04-02T19:24:51.300Z,51.04
2023-04-02T19:25:52.167Z,51.25
2023-04-02T19:26:53.036Z,51.15
2023-04-02T19:27:53.931Z,50.63
2023-04-02T19:28:54.772Z,51.15
2023-04-02T19:29:55.699Z,50.74
2023-04-02T19:30:56.568Z,51.15
2023-04-02T19:31:57.623Z,50.63
2023-04-02T19:32:58.112Z,51.17
2023-04-02T19:33:58.962Z,51.76
2023-04-02T19:34:59.949Z,51.25
2023-04-02T19:36:00.841Z,51.66
2023-04-02T19:37:01.707Z,51.35
2023-04-02T19:38:02.569Z,51.45
2023-04-02T19:39:03.414Z,50.84
2023-04-02T19:40:04.743Z,51.35
2023-04-02T19:41:05.076Z,51.25
2023-04-02T19:42:05.942Z,51.76
2023-04-02T19:43:06.840Z,51.66
2023-04-02T19:44:07.677Z,51.45
2023-04-02T19:45:08.593Z,51.45
2023-04-02T19:46:09.466Z,51.15
2023-04-02T19:47:10.323Z,51.99
2023-04-02T19:48:11.219Z,52.09
2023-04-02T19:49:12.077Z,52.09
2023-04-02T19:50:13.010Z,51.89
2023-04-02T19:51:13.887Z,50.96
2023-04-02T19:52:14.751Z,51.37
2023-04-02T19:53:15.616Z,52.61
2023-04-02T19:54:16.494Z,51.68
2023-04-02T19:55:17.408Z,52.40
2023-04-02T19:56:18.280Z,51.79
2023-04-02T19:57:19.153Z,51.99
2023-04-02T19:58:20.198Z,52.30
2023-04-02T19:59:20.532Z,52.09
2023-04-02T20:00:21.540Z,52.40
2023-04-02T20:01:21.920Z,53.02
2023-04-02T20:02:22.803Z,52.51
2023-04-02T20:03:23.652Z,51.58
2023-04-02T20:04:24.549Z,52.20
2023-04-02T20:05:25.513Z,52.20
2023-04-02T20:06:26.371Z,51.68
2023-04-02T20:07:27.241Z,52.92
2023-04-02T20:08:28.110Z,52.40
2023-04-02T20:09:28.974Z,52.51
2023-04-02T20:10:29.921Z,53.12
2023-04-02T20:11:30.762Z,54.05
2023-04-02T20:12:31.621Z,52.73
2023-04-02T20:13:32.505Z,52.43
2023-04-02T20:14:33.353Z,52.43
2023-04-02T20:15:34.533Z,52.22
2023-04-02T20:16:35.112Z,52.12
2023-04-02T20:17:35.510Z,53.87
2023-04-02T20:18:36.344Z,53.66
2023-04-02T20:19:37.212Z,52.12
2023-04-02T20:20:38.540Z,52.12
2023-04-02T20:21:38.948Z,52.64
2023-04-02T20:22:39.809Z,53.15
2023-04-02T20:23:40.676Z,53.15
2023-04-02T20:24:41.543Z,52.94
2023-04-02T20:25:42.466Z,52.94
2023-04-02T20:26:43.332Z,53.48
2023-04-02T20:27:44.207Z,52.66
2023-04-02T20:28:45.091Z,52.35
2023-04-02T20:29:45.936Z,52.45
2023-04-02T20:30:46.924Z,53.17
2023-04-02T20:31:47.746Z,52.56
2023-04-02T20:32:48.713Z,52.76
2023-04-02T20:33:49.766Z,53.38
2023-04-02T20:34:50.155Z,52.76
2023-04-02T20:35:51.065Z,52.45
2023-04-02T20:36:51.941Z,52.56
2023-04-02T20:37:52.804Z,53.07
2023-04-02T20:38:53.684Z,53.28
2023-04-02T20:39:54.539Z,53.71
2023-04-02T20:40:55.450Z,53.71
2023-04-02T20:41:56.316Z,53.81
2023-04-02T20:42:57.188Z,53.41
2023-04-02T20:43:58.077Z,53.30
2023-04-02T20:44:58.919Z,53.61
2023-04-02T20:45:59.958Z,53.71
2023-04-02T20:47:00.294Z,53.61
2023-04-02T20:48:01.261Z,53.20
2023-04-02T20:49:02.108Z,54.22
2023-04-02T20:50:02.971Z,54.02
2023-04-02T20:51:03.884Z,54.85
2023-04-02T20:52:04.746Z,54.02
2023-04-02T20:53:05.614Z,53.61
2023-04-02T20:54:06.480Z,53.61
2023-04-02T20:55:07.358Z,54.13
2023-04-02T20:56:08.338Z,54.94
2023-04-02T20:57:08.758Z,54.22
2023-04-02T20:58:09.619Z,54.25
2023-04-02T20:59:10.505Z,54.66
2023-04-02T21:00:11.352Z,54.35
2023-04-02T21:01:12.356Z,55.18
2023-04-02T21:02:13.206Z,55.18
2023-04-02T21:03:14.081Z,55.18
2023-04-02T21:04:14.949Z,55.59
2023-04-02T21:05:15.819Z,55.80
2023-04-02T21:06:16.765Z,55.80
2023-04-02T21:07:17.604Z,56.00
2023-04-02T21:08:18.469Z,55.82
2023-04-02T21:09:19.339Z,56.13
2023-04-02T21:10:20.211Z,56.75
2023-04-02T21:11:21.133Z,56.54
2023-04-02T21:12:22.000Z,55.62
2023-04-02T21:13:22.870Z,55.51
2023-04-02T21:14:23.770Z,56.34
2023-04-02T21:15:24.606Z,56.13
2023-04-02T21:16:25.667Z,56.34
2023-04-02T21:17:26.039Z,56.44
2023-04-02T21:18:26.897Z,56.34
2023-04-02T21:19:27.785Z,56.65
2023-04-02T21:20:28.651Z,56.75
2023-04-02T21:21:29.578Z,56.54
2023-04-02T21:22:30.447Z,56.57
2023-04-02T21:23:31.318Z,56.57
2023-04-02T21:24:32.179Z,57.09
2023-04-02T21:25:33.046Z,57.18
2023-04-02T21:26:34.779Z,56.98
2023-04-02T21:27:34.929Z,57.09
2023-04-02T21:28:35.784Z,57.09
2023-04-02T21:29:36.685Z,57.50
2023-04-02T21:30:37.520Z,57.39
2023-04-02T21:31:38.557Z,57.70
2023-04-02T21:32:38.909Z,57.70
2023-04-02T21:33:39.759Z,58.01
2023-04-02T21:34:40.621Z,58.11
2023-04-02T21:35:41.496Z,57.60
2023-04-02T21:36:42.431Z,57.50
2023-04-02T21:37:44.308Z,57.52
2023-04-02T21:38:44.156Z,58.04
2023-04-02T21:39:45.025Z,58.25
2023-04-02T21:40:45.904Z,58.35
2023-04-02T21:41:46.924Z,58.45
2023-04-02T21:42:47.272Z,58.99
2023-04-02T21:43:48.145Z,59.09
2023-04-02T21:44:49.037Z,59.41
2023-04-02T21:45:49.886Z,58.99
2023-04-02T21:46:53.041Z,59.41
2023-04-02T21:47:51.374Z,60.02
2023-04-02T21:48:52.226Z,59.51
2023-04-02T21:49:53.095Z,60.67
2023-04-02T21:50:53.964Z,60.47
2023-04-02T21:51:54.872Z,60.13
2023-04-02T21:52:55.735Z,60.02
2023-04-02T21:53:56.597Z,59.92
2023-04-02T21:54:57.497Z,60.64
2023-04-02T21:55:58.344Z,60.88
2023-04-02T21:56:59.347Z,60.57
2023-04-02T21:57:59.711Z,60.26
2023-04-02T21:59:00.582Z,59.95
2023-04-02T22:00:01.480Z,60.57
2023-04-02T22:01:02.355Z,60.57
2023-04-02T22:02:03.316Z,60.77
2023-04-02T22:03:04.248Z,60.47
2023-04-02T22:04:05.224Z,60.77
2023-04-02T22:05:05.615Z,60.98
2023-04-02T22:06:06.478Z,60.98
2023-04-02T22:07:07.407Z,61.08
2023-04-02T22:08:08.275Z,61.50
2023-04-02T22:09:09.141Z,61.29
2023-04-02T22:10:10.003Z,61.29
2023-04-02T22:11:10.873Z,61.42
2023-04-02T22:12:11.876Z,61.83
2023-04-02T22:13:12.243Z,62.55
2023-04-02T22:14:13.111Z,62.04
2023-04-02T22:15:13.999Z,61.73
2023-04-02T22:16:14.916Z,61.94
2023-04-02T22:17:15.822Z,61.94
2023-04-02T22:18:16.687Z,62.04
2023-04-02T22:19:17.569Z,62.04
2023-04-02T22:20:18.422Z,62.66
2023-04-02T22:21:19.305Z,62.97
2023-04-02T22:22:20.207Z,62.87
2023-04-02T22:23:21.077Z,63.00
2023-04-02T22:24:21.966Z,62.97
2023-04-02T22:25:22.810Z,62.79
2023-04-02T22:26:23.677Z,63.00
2023-04-02T22:27:24.593Z,63.10
2023-04-02T22:28:25.456Z,63.10
2023-04-02T22:29:26.324Z,63.39
2023-04-02T22:30:27.215Z,63.21
2023-04-02T22:31:28.102Z,63.31
2023-04-02T22:32:29.059Z,62.79
2023-04-02T22:33:29.906Z,62.90
2023-04-02T22:34:30.785Z,63.10
2023-04-02T22:35:31.701Z,63.42
2023-04-02T22:36:32.545Z,63.51
2023-04-02T22:37:33.422Z,63.51
2023-04-02T22:38:34.291Z,63.62
2023-04-02T22:39:35.180Z,63.51
2023-04-02T22:40:36.255Z,63.82
2023-04-02T22:41:36.732Z,64.55
2023-04-02T22:42:37.598Z,64.65
2023-04-02T22:43:38.502Z,64.34
2023-04-02T22:44:39.343Z,64.03
2023-04-02T22:45:40.238Z,64.68
2023-04-02T22:46:41.118Z,64.48
2023-04-02T22:47:41.983Z,64.89
2023-04-02T22:48:42.830Z,64.68
2023-04-02T22:49:43.832Z,65.20
2023-04-02T22:50:44.195Z,64.99
2023-04-02T22:51:45.624Z,65.20
2023-04-02T22:52:45.975Z,64.99
2023-04-02T22:53:46.850Z,65.09
2023-04-02T22:54:47.850Z,65.41
2023-04-02T22:55:48.207Z,65.30
2023-04-02T22:56:49.118Z,65.54
2023-04-02T22:57:49.939Z,65.30
2023-04-02T22:58:50.817Z,65.23
2023-04-02T22:59:51.809Z,65.64
2023-04-02T23:00:52.193Z,65.41
2023-04-02T23:01:53.064Z,65.44
2023-04-02T23:02:53.973Z,65.44
2023-04-02T23:03:54.814Z,65.75
2023-04-02T23:04:55.774Z,66.06
2023-04-02T23:05:56.603Z,66.26
2023-04-02T23:06:57.472Z,66.47
2023-04-02T23:07:58.335Z,66.47
2023-04-02T23:08:59.220Z,66.06
2023-04-02T23:10:00.146Z,66.06
2023-04-02T23:11:00.982Z,66.26
2023-04-02T23:12:01.847Z,66.26
2023-04-02T23:13:02.722Z,66.16
2023-04-02T23:14:03.588Z,66.47
2023-04-02T23:15:04.657Z,66.36
2023-04-02T23:16:05.142Z,66.78
2023-04-02T23:17:06.002Z,66.67
2023-04-02T23:18:06.906Z,66.78
2023-04-02T23:19:07.794Z,66.91
2023-04-02T23:20:08.740Z,67.43
2023-04-02T23:21:09.591Z,67.22
2023-04-02T23:22:10.450Z,67.02
2023-04-02T23:23:11.322Z,67.22
2023-04-02T23:24:12.184Z,67.33
2023-04-02T23:25:13.092Z,67.02
2023-04-02T23:26:13.982Z,67.02
2023-04-02T23:27:14.825Z,67.22
2023-04-02T23:28:15.695Z,67.02
2023-04-02T23:29:16.573Z,67.33
2023-04-02T23:30:17.482Z,67.12
2023-04-02T23:31:18.398Z,67.02
2023-04-02T23:32:19.229Z,67.43
2023-04-02T23:33:20.109Z,67.67
2023-04-02T23:34:20.965Z,68.08
2023-04-02T23:35:21.901Z,67.77
2023-04-02T23:36:22.788Z,67.05
2023-04-02T23:37:23.649Z,67.57
2023-04-02T23:38:24.516Z,68.08
2023-04-02T23:39:25.385Z,67.36
2023-04-02T23:40:26.402Z,67.36
2023-04-02T23:41:27.003Z,68.49
2023-04-02T23:42:28.430Z,68.29
2023-04-02T23:43:28.298Z,68.43
2023-04-02T23:44:29.161Z,68.22
2023-04-02T23:45:30.083Z,68.22
2023-04-02T23:46:30.990Z,68.12
2023-04-02T23:47:31.956Z,69.15
2023-04-02T23:48:32.353Z,68.32
2023-04-02T23:49:33.230Z,68.53
2023-04-02T23:50:34.646Z,68.74
2023-04-02T23:51:34.717Z,68.63
2023-04-02T23:52:35.582Z,68.74
2023-04-02T23:53:36.448Z,68.74
2023-04-02T23:54:37.332Z,68.94
2023-04-02T23:55:38.220Z,69.04
2023-04-02T23:56:39.083Z,69.04
2023-04-02T23:57:39.956Z,69.87
2023-04-02T23:58:40.817Z,69.35
2023-04-02T23:59:41.700Z,69.46
